Погода Майртупна 2 недели

Чеченская Республика, Россия

15 - 28 июля
  • 15июля
    Сегодня
    +21°
    +35°
    Ясно и безоблачно
    ВремяПогодаТемператураВлажностьДавлениеВетер, м/сВероятность осадков
    00:00Ясно и безоблачно+21°C46 %741 мм2.3 м/с2 %
    03:00Ясно и безоблачно+20°C45 %741 мм2.4 м/с2 %
    06:00Ясно и безоблачно+21°C41 %741 мм2.2 м/с2 %
    09:00Ясно и безоблачно+28°C22 %742 мм2.6 м/с2 %
    12:00Ясно и безоблачно+33°C22 %741 мм2.6 м/с2 %
    15:00Ясно и безоблачно+35°C20 %740 мм3.1 м/с2 %
    18:00Ясно и безоблачно+33°C26 %741 мм3.4 м/с2 %
    21:00Ясно и безоблачно+27°C40 %741 мм1.6 м/с2 %
  • 16июля
    Вторник
    +22°
    +36°
    Небольшая облачность
    ВремяПогодаТемператураВлажностьДавлениеВетер, м/сВероятность осадков
    00:00Ясно и безоблачно+24°C55 %741 мм1.9 м/с2 %
    03:00Ясно и безоблачно+22°C59 %741 мм1.9 м/с2 %
    06:00Ясно и безоблачно+23°C49 %741 мм2.0 м/с2 %
    09:00Ясно и безоблачно+30°C29 %742 мм2.6 м/с2 %
    12:00Ясно и безоблачно+35°C21 %741 мм3.2 м/с2 %
    15:00Небольшая облачность+36°C22 %741 мм4.0 м/с4 %
    18:00Практически безоблачно+33°C29 %741 мм3.7 м/с4 %
    21:00Ясно и безоблачно+28°C42 %742 мм1.4 м/с2 %
  • 17июля
    Среда
    +23°
    +37°
    Небольшая облачность
    ВремяПогодаТемператураВлажностьДавлениеВетер, м/сВероятность осадков
    00:00Ясно и безоблачно+25°C57 %741 мм1.5 м/с2 %
    03:00Ясно и безоблачно+24°C52 %741 мм1.9 м/с2 %
    06:00Ясно и безоблачно+24°C43 %742 мм1.9 м/с2 %
    09:00Ясно и безоблачно+31°C28 %743 мм2.7 м/с2 %
    12:00Практически безоблачно+36°C22 %742 мм2.8 м/с3 %
    15:00Небольшая облачность+37°C25 %741 мм3.5 м/с6 %
    18:00Практически безоблачно+33°C29 %742 мм4.0 м/с4 %
    21:00Ясно и безоблачно+29°C45 %742 мм1.8 м/с2 %
  • 18июля
    Четверг
    +24°
    +37°
    Ясно и безоблачно
    ВремяПогодаТемператураВлажностьДавлениеВетер, м/сВероятность осадков
    00:00Облачно с прояснениями+24°C53 %742 мм2.0 м/с2 %
    03:00Облачно с прояснениями+24°C60 %742 мм1.9 м/с2 %
    06:00Практически безоблачно+24°C53 %742 мм2.0 м/с3 %
    09:00Ясно и безоблачно+31°C34 %743 мм2.6 м/с3 %
    12:00Ясно и безоблачно+35°C24 %742 мм1.8 м/с3 %
    15:00Ясно и безоблачно+36°C22 %741 мм1.7 м/с3 %
    18:00Небольшая облачность+33°C26 %740 мм3.8 м/с3 %
    21:00Ясно и безоблачно+28°C44 %741 мм2.1 м/с2 %
  • 19июля
    Пятница
    +22°
    +38°
    Ясно и безоблачно
    ВремяПогодаТемператураВлажностьДавлениеВетер, м/сВероятность осадков
    00:00Ясно и безоблачно+26°C48 %741 мм2.1 м/с2 %
    03:00Ясно и безоблачно+25°C46 %740 мм2.0 м/с2 %
    06:00Ясно и безоблачно+25°C43 %740 мм2.3 м/с2 %
    09:00Ясно и безоблачно+31°C25 %740 мм2.5 м/с2 %
    12:00Ясно и безоблачно+35°C19 %739 мм2.1 м/с2 %
    15:00Ясно и безоблачно+37°C15 %739 мм2.3 м/с2 %
    18:00Ясно и безоблачно+34°C16 %738 мм3.4 м/с2 %
    21:00Ясно и безоблачно+29°C32 %739 мм1.9 м/с2 %
Мы используем cookies
Соглашаюсь